Time;durP1;ratioP1;P1;durP2;ratioP2;P2;SDS_P1;SDS_P2;PMS_P1;PMS_P2;Temp;Humidity;BMP_temperature;BMP_pressure;BME280_temperature;BME280_humidity;BME280_pressure;Samples;Min_cycle;Max_cycle;Signal;HPM_P1;HPM_P2
2022/06/18 00:00:55;;;;;;;6.65;5.47;;;19.70;99.90;;;;;;4994063;28;94703;-36
2022/06/18 00:03:22;;;;;;;6.13;5.50;;;19.70;99.90;;;;;;4987107;28;94288;-35
2022/06/18 00:05:50;;;;;;;11.70;5.85;;;19.60;99.90;;;;;;4996654;28;94925;-35
2022/06/18 00:08:21;;;;;;;6.15;5.40;;;19.50;99.90;;;;;;4997018;28;94939;-34
2022/06/18 00:10:54;;;;;;;10.07;4.78;;;19.50;99.90;;;;;;4996781;28;92174;-38
2022/06/18 00:13:40;;;;;;;6.90;5.50;;;19.50;99.90;;;;;;4997268;28;92136;-38
2022/06/18 00:16:14;;;;;;;9.63;5.25;;;19.50;99.90;;;;;;4996325;28;94527;-37
2022/06/18 00:18:41;;;;;;;6.13;5.28;;;19.50;99.90;;;;;;4997143;28;95491;-34
2022/06/18 00:21:08;;;;;;;7.40;5.00;;;19.40;99.90;;;;;;4996786;28;93950;-34
2022/06/18 00:23:41;;;;;;;7.00;5.93;;;19.40;99.90;;;;;;4996732;28;92646;-37
2022/06/18 00:26:07;;;;;;;7.28;4.82;;;19.50;99.90;;;;;;4996821;28;94775;-37
2022/06/18 00:28:32;;;;;;;6.45;5.78;;;19.40;99.90;;;;;;4996683;28;94566;-37
2022/06/18 00:30:58;;;;;;;7.85;5.13;;;19.50;99.90;;;;;;4997390;28;92101;-37
2022/06/18 00:33:25;;;;;;;5.90;5.30;;;19.50;99.90;;;;;;4997094;28;92509;-34
2022/06/18 00:35:56;;;;;;;5.90;5.40;;;19.50;99.90;;;;;;4995901;28;95297;-35
2022/06/18 00:38:28;;;;;;;5.13;4.72;;;19.40;99.90;;;;;;4996291;28;94441;-36
2022/06/18 00:40:54;;;;;;;6.72;4.70;;;19.40;99.90;;;;;;4996759;28;93133;-35
2022/06/18 00:43:32;;;;;;;7.07;6.40;;;19.40;99.90;;;;;;4996060;28;93226;-36
2022/06/18 00:46:25;;;;;;;8.47;5.93;;;19.40;99.90;;;;;;4996200;28;94914;-37
2022/06/18 00:49:20;;;;;;;7.93;5.63;;;19.30;99.90;;;;;;4996417;28;95050;-35
2022/06/18 00:52:06;;;;;;;6.32;5.72;;;19.30;99.90;;;;;;4996595;28;93430;-34
2022/06/18 00:54:58;;;;;;;7.28;6.63;;;19.40;99.90;;;;;;4996898;28;92772;-33
2022/06/18 00:57:34;;;;;;;8.63;6.38;;;19.40;99.90;;;;;;4996043;28;94780;-38
2022/06/18 01:00:12;;;;;;;6.30;5.38;;;19.40;99.90;;;;;;4996878;28;94826;-34
2022/06/18 01:02:42;;;;;;;12.48;6.93;;;19.40;99.90;;;;;;5024408;22;94346;-37
2022/06/18 01:05:15;;;;;;;6.30;5.70;;;19.40;99.90;;;;;;4996480;28;93560;-36
2022/06/18 01:07:41;;;;;;;6.40;5.88;;;19.30;99.90;;;;;;4995454;28;95674;-34
2022/06/18 01:10:15;;;;;;;12.15;6.22;;;19.30;99.90;;;;;;4995634;28;95369;-38
2022/06/18 01:12:41;;;;;;;7.40;5.90;;;19.30;99.90;;;;;;4996884;28;92958;-37
2022/06/18 01:15:10;;;;;;;10.00;6.45;;;19.30;99.90;;;;;;4996134;28;94314;-35
2022/06/18 01:17:38;;;;;;;7.60;6.82;;;19.30;99.90;;;;;;4995689;28;95796;-36
2022/06/18 01:20:05;;;;;;;;;;;19.30;99.90;;;;;;4996611;28;94676;-39
2022/06/18 01:23:25;;;;;;;7.70;7.10;;;19.30;99.90;;;;;;4995581;28;92857;-37
2022/06/18 01:25:54;;;;;;;8.00;6.55;;;19.20;99.90;;;;;;4972481;28;92521;-35
2022/06/18 01:28:20;;;;;;;7.07;6.47;;;19.20;99.90;;;;;;4973411;28;95001;-37
2022/06/18 01:30:46;;;;;;;6.85;6.35;;;19.20;99.90;;;;;;4983375;28;95601;-35
2022/06/18 01:33:13;;;;;;;7.47;6.88;;;19.20;99.90;;;;;;4995603;28;93392;-34
2022/06/18 01:35:43;;;;;;;8.20;6.78;;;19.20;99.90;;;;;;4995806;28;94272;-36
2022/06/18 01:38:10;;;;;;;9.73;7.13;;;19.20;99.90;;;;;;4995877;28;94624;-37
2022/06/18 01:43:52;;;;;;;10.75;7.90;;;19.30;99.90;;;;;;4995966;28;92921;-36
2022/06/18 01:46:18;;;;;;;8.40;7.70;;;19.30;99.90;;;;;;4995230;28;93617;-37
2022/06/18 01:48:46;;;;;;;9.05;7.63;;;19.20;99.90;;;;;;4995790;28;94769;-34
2022/06/18 01:51:21;;;;;;;8.52;7.82;;;19.20;99.90;;;;;;4995883;28;94410;-36
2022/06/18 01:53:53;;;;;;;7.63;6.25;;;19.20;99.90;;;;;;4996116;28;92979;-34
2022/06/18 01:56:23;;;;;;;9.45;8.15;;;19.10;99.90;;;;;;4998398;28;92848;-35
2022/06/18 01:58:58;;;;;;;8.25;7.50;;;19.10;99.90;;;;;;4998518;28;96531;-33
2022/06/18 02:01:26;;;;;;;9.02;8.23;;;19.10;99.90;;;;;;4998446;28;95039;-37
2022/06/18 02:03:54;;;;;;;8.95;7.25;;;19.10;99.90;;;;;;4999601;28;92751;-36
2022/06/18 02:06:20;;;;;;;8.98;7.85;;;19.00;99.90;;;;;;4999684;28;92951;-37
2022/06/18 02:08:47;;;;;;;8.57;7.32;;;19.10;99.90;;;;;;4999316;28;94834;-34
2022/06/18 02:11:15;;;;;;;8.00;7.20;;;19.00;99.90;;;;;;4998187;28;94594;-35
2022/06/18 02:13:45;;;;;;;17.23;8.05;;;19.00;99.90;;;;;;4999133;28;93352;-35
2022/06/18 02:16:15;;;;;;;8.55;7.85;;;19.00;99.90;;;;;;4999712;28;93055;-35
2022/06/18 02:18:43;;;;;;;8.50;7.80;;;19.00;99.90;;;;;;4998604;28;94996;-34
2022/06/18 02:21:13;;;;;;;9.02;8.18;;;19.00;99.90;;;;;;4999025;28;94478;-34
2022/06/18 02:23:39;;;;;;;9.13;8.13;;;18.90;99.90;;;;;;4998687;28;95437;-38
2022/06/18 02:26:07;;;;;;;9.77;8.73;;;18.90;99.90;;;;;;4998615;28;93466;-34
2022/06/18 02:28:40;;;;;;;11.18;8.57;;;18.90;99.90;;;;;;4998602;28;95070;-36
2022/06/18 02:31:10;;;;;;;11.38;8.55;;;18.90;99.90;;;;;;4998776;28;94130;-37
2022/06/18 02:33:47;;;;;;;8.77;8.05;;;18.90;99.90;;;;;;4999026;28;94225;-36
2022/06/18 02:36:17;;;;;;;10.40;9.30;;;19.00;99.90;;;;;;4998216;28;93062;-35
2022/06/18 02:38:44;;;;;;;10.77;9.15;;;19.00;99.90;;;;;;4998541;28;95064;-35
2022/06/18 02:41:11;;;;;;;10.33;8.67;;;19.00;99.90;;;;;;4998743;28;94464;-38
2022/06/18 02:43:38;;;;;;;14.55;9.05;;;19.00;99.90;;;;;;4998451;28;92641;-35
2022/06/18 02:46:04;;;;;;;10.20;8.98;;;18.90;99.90;;;;;;4998762;28;93421;-37
2022/06/18 02:48:32;;;;;;;9.15;8.30;;;18.90;99.90;;;;;;4997234;28;97105;-36
2022/06/18 02:50:59;;;;;;;11.70;9.80;;;18.90;99.90;;;;;;4997007;28;95971;-35
2022/06/18 02:53:26;;;;;;;12.70;8.55;;;19.00;99.90;;;;;;4998724;28;94029;-36
2022/06/18 02:55:55;;;;;;;9.95;9.02;;;19.00;99.90;;;;;;4998475;28;93162;-38
2022/06/18 02:58:25;;;;;;;10.73;9.63;;;19.00;99.90;;;;;;4998746;28;93390;-34
2022/06/18 03:00:57;;;;;;;10.45;9.45;;;18.90;99.90;;;;;;4997770;28;94631;-34
2022/06/18 03:03:29;;;;;;;10.77;8.90;;;18.90;99.90;;;;;;4998937;28;92236;-34
2022/06/18 03:05:55;;;;;;;10.95;9.00;;;18.90;99.90;;;;;;4997656;28;93652;-35
2022/06/18 03:08:22;;;;;;;10.40;9.50;;;18.90;99.90;;;;;;4998317;28;94700;-36
2022/06/18 03:13:33;;;;;;;14.60;10.05;;;18.90;99.90;;;;;;4998349;28;94573;-34
2022/06/18 03:15:59;;;;;;;10.73;9.80;;;18.90;99.90;;;;;;4997701;28;94835;-33
2022/06/18 03:18:29;;;;;;;14.57;9.35;;;19.00;99.90;;;;;;4998494;28;94825;-36
2022/06/18 03:21:39;;;;;;;10.40;9.30;;;19.00;99.90;;;;;;4997434;28;94114;-36
2022/06/18 03:24:05;;;;;;;11.25;10.25;;;18.90;99.90;;;;;;4987269;28;92960;-37
2022/06/18 03:26:31;;;;;;;12.93;9.82;;;18.90;99.90;;;;;;4996884;28;94380;-35
2022/06/18 03:28:57;;;;;;;11.35;10.18;;;18.90;99.90;;;;;;4998095;28;94849;-36
2022/06/18 03:31:24;;;;;;;10.60;9.70;;;18.90;99.90;;;;;;4997865;28;94408;-34
2022/06/18 03:33:50;;;;;;;14.23;9.88;;;18.80;99.90;;;;;;4998366;28;94420;-33
2022/06/18 03:36:18;;;;;;;13.30;11.25;;;18.80;99.90;;;;;;4998079;28;94059;-38
2022/06/18 03:38:45;;;;;;;13.80;10.10;;;18.80;99.90;;;;;;4996070;28;95796;-35
2022/06/18 03:41:12;;;;;;;14.23;12.52;;;18.80;99.90;;;;;;4997036;28;95417;-37
2022/06/18 03:43:38;;;;;;;13.88;10.88;;;18.80;99.90;;;;;;4996836;28;92192;-35
2022/06/18 03:46:08;;;;;;;12.88;11.00;;;18.80;99.90;;;;;;4997286;28;93508;-35
2022/06/18 03:48:49;;;;;;;13.50;11.00;;;18.80;99.90;;;;;;4996684;28;94480;-35
2022/06/18 03:51:15;;;;;;;14.65;11.85;;;18.80;99.90;;;;;;4998749;28;94531;-34
2022/06/18 03:53:41;;;;;;;12.02;10.82;;;18.80;99.90;;;;;;4997376;28;93105;-37
2022/06/18 03:56:10;;;;;;;11.38;10.38;;;18.80;99.90;;;;;;4996926;28;91480;-36
2022/06/18 03:58:36;;;;;;;12.63;11.40;;;18.80;99.90;;;;;;4996143;28;93444;-34
2022/06/18 04:01:02;;;;;;;14.27;12.30;;;18.80;99.90;;;;;;4995940;28;94545;-36
2022/06/18 04:03:28;;;;;;;12.02;10.75;;;18.80;99.90;;;;;;4996315;28;93817;-35
2022/06/18 04:05:53;;;;;;;13.20;11.82;;;18.80;99.90;;;;;;4996195;28;94543;-33
2022/06/18 04:08:20;;;;;;;13.40;11.77;;;18.80;99.90;;;;;;4997017;28;94710;-36
2022/06/18 04:10:46;;;;;;;14.30;12.60;;;18.80;99.90;;;;;;4995776;28;94566;-34
2022/06/18 04:13:12;;;;;;;15.23;12.00;;;18.90;99.90;;;;;;4997177;28;94489;-39
2022/06/18 04:15:38;;;;;;;16.20;13.88;;;18.90;99.90;;;;;;4996562;28;93435;-35
2022/06/18 04:18:05;;;;;;;13.18;11.77;;;18.90;99.90;;;;;;4995210;28;93529;-32
2022/06/18 04:20:35;;;;;;;13.27;12.02;;;18.90;99.90;;;;;;4997218;28;94611;-37
2022/06/18 04:23:01;;;;;;;12.57;11.38;;;19.00;99.90;;;;;;4997143;28;93169;-35
2022/06/18 04:25:27;;;;;;;11.50;10.50;;;19.00;99.90;;;;;;4996560;28;92783;-33
2022/06/18 04:27:57;;;;;;;16.20;11.13;;;19.00;99.90;;;;;;4995355;28;95799;-34
2022/06/18 04:30:24;;;;;;;13.27;11.63;;;19.10;99.90;;;;;;4995939;28;95848;-36
2022/06/18 04:32:51;;;;;;;13.45;12.05;;;19.10;99.90;;;;;;4996558;28;94452;-38
2022/06/18 04:35:17;;;;;;;19.50;12.60;;;19.20;99.90;;;;;;4996718;28;93112;-35
2022/06/18 04:37:46;;;;;;;14.35;12.80;;;19.30;99.90;;;;;;4995415;28;95451;-34
2022/06/18 04:40:28;;;;;;;15.32;12.15;;;19.30;99.90;;;;;;4996335;28;95107;-35
2022/06/18 04:42:54;;;;;;;16.95;13.10;;;19.40;99.90;;;;;;4995820;28;93229;-34
2022/06/18 04:45:19;;;;;;;13.07;11.50;;;19.50;99.90;;;;;;4996642;28;93365;-39
2022/06/18 04:47:45;;;;;;;14.52;12.55;;;19.60;99.90;;;;;;4995805;28;94523;-36
2022/06/18 04:50:20;;;;;;;21.48;13.43;;;19.70;99.90;;;;;;4995803;28;95471;-36
2022/06/18 04:52:46;;;;;;;13.82;12.43;;;19.80;99.90;;;;;;4995606;28;95274;-33
2022/06/18 04:55:11;;;;;;;14.77;13.25;;;19.90;99.90;;;;;;4995707;28;94109;-34
2022/06/18 04:57:37;;;;;;;18.67;13.75;;;20.00;99.90;;;;;;4995050;28;95096;-36
2022/06/18 05:00:06;;;;;;;17.23;13.68;;;20.00;99.90;;;;;;4995619;28;95810;-36
2022/06/18 05:02:34;;;;;;;16.65;11.50;;;20.20;99.90;;;;;;4995550;28;94591;-36
2022/06/18 05:04:59;;;;;;;14.98;13.50;;;20.30;99.90;;;;;;4995669;28;92131;-36
2022/06/18 05:07:25;;;;;;;17.25;12.48;;;20.40;99.90;;;;;;4995658;28;94584;-36
2022/06/18 05:09:51;;;;;;;15.13;12.00;;;20.50;99.90;;;;;;4995766;28;96487;-36
2022/06/18 05:12:16;;;;;;;16.10;13.98;;;20.40;99.90;;;;;;4996346;28;94342;-36
2022/06/18 05:14:43;;;;;;;12.95;10.32;;;20.60;99.90;;;;;;4995701;28;92092;-34
2022/06/18 05:17:15;;;;;;;19.15;12.05;;;20.70;99.90;;;;;;4995414;28;95627;-33
2022/06/18 05:19:41;;;;;;;13.27;11.52;;;20.90;99.90;;;;;;4994921;28;96971;-35
2022/06/18 05:22:08;;;;;;;11.00;9.68;;;21.10;99.90;;;;;;4995413;28;93783;-36
2022/06/18 05:24:35;;;;;;;15.47;11.97;;;21.20;99.90;;;;;;4996921;28;93009;-35
2022/06/18 05:27:01;;;;;;;21.10;12.45;;;21.30;99.90;;;;;;4995845;28;96132;-34
2022/06/18 05:29:27;;;;;;;16.67;11.85;;;21.40;99.90;;;;;;4996446;28;94878;-36
2022/06/18 05:31:53;;;;;;;16.80;12.43;;;21.50;99.90;;;;;;4998763;28;94008;-34
2022/06/18 05:34:18;;;;;;;12.75;11.45;;;21.50;99.90;;;;;;4999100;28;92696;-37
2022/06/18 05:36:44;;;;;;;15.45;12.38;;;21.70;99.90;;;;;;4998699;28;93814;-36
2022/06/18 05:39:14;;;;;;;13.95;12.27;;;21.70;99.90;;;;;;4999495;28;95509;-35
2022/06/18 05:41:40;;;;;;;13.55;12.10;;;21.80;99.90;;;;;;4998481;28;93997;-35
2022/06/18 05:44:06;;;;;;;14.00;11.63;;;21.90;99.90;;;;;;4998351;28;93143;-34
2022/06/18 05:46:32;;;;;;;13.55;12.32;;;22.10;99.90;;;;;;4990534;28;94976;-34
2022/06/18 05:48:57;;;;;;;18.50;12.90;;;22.20;99.90;;;;;;4994732;28;94061;-34
2022/06/18 05:51:23;;;;;;;18.35;12.38;;;22.30;99.90;;;;;;4999002;28;94605;-40
2022/06/18 05:53:49;;;;;;;11.18;10.07;;;22.40;99.90;;;;;;4998446;28;93885;-36
2022/06/18 05:56:15;;;;;;;12.50;10.85;;;22.40;99.90;;;;;;4997913;28;95754;-35
2022/06/18 05:58:41;;;;;;;13.05;11.75;;;22.60;99.90;;;;;;4998797;28;94858;-33
2022/06/18 06:01:06;;;;;;;12.50;10.60;;;22.50;99.90;;;;;;4998065;28;94519;-36
2022/06/18 06:03:32;;;;;;;12.05;9.10;;;22.70;99.90;;;;;;4998747;28;94311;-38
2022/06/18 06:05:58;;;;;;;23.90;13.73;;;22.60;99.90;;;;;;4997779;28;95368;-38
2022/06/18 06:08:24;;;;;;;18.67;11.88;;;22.70;99.90;;;;;;4997762;28;95777;-35
2022/06/18 06:13:34;;;;;;;16.85;12.68;;;22.70;99.90;;;;;;4987317;28;92157;-37
2022/06/18 06:15:59;;;;;;;17.67;11.10;;;22.60;99.90;;;;;;4998380;28;95643;-36
2022/06/18 06:18:25;;;;;;;13.90;12.48;;;22.90;99.90;;;;;;4997520;28;95475;-37
2022/06/18 06:20:53;;;;;;;16.40;12.55;;;23.00;99.90;;;;;;4998377;28;92449;-34
2022/06/18 06:23:20;;;;;;;16.90;11.68;;;23.00;99.90;;;;;;4998996;28;91894;-36
2022/06/18 06:25:47;;;;;;;15.77;13.48;;;22.90;99.90;;;;;;4997750;28;94714;-39
2022/06/18 06:28:18;;;;;;;22.20;14.27;;;22.90;99.90;;;;;;4998003;28;96996;-38
2022/06/18 06:30:44;;;;;;;13.02;11.25;;;23.10;99.90;;;;;;4997795;28;94197;-35
2022/06/18 06:33:10;;;;;;;15.48;12.05;;;23.00;99.90;;;;;;4998482;28;94426;-38
2022/06/18 06:35:36;;;;;;;20.23;12.25;;;23.20;99.90;;;;;;4998310;28;94259;-35
2022/06/18 06:38:02;;;;;;;25.33;13.35;;;23.30;99.90;;;;;;4997982;28;95180;-33
2022/06/18 06:40:30;;;;;;;15.32;12.45;;;23.40;99.90;;;;;;5004276;28;93246;-36
2022/06/18 06:42:56;;;;;;;19.80;13.80;;;23.40;99.90;;;;;;5004626;28;93171;-34
2022/06/18 06:45:29;;;;;;;19.08;12.50;;;23.60;99.90;;;;;;4998128;28;94473;-36
2022/06/18 06:47:55;;;;;;;14.95;13.35;;;23.40;99.90;;;;;;4997028;28;93392;-38
2022/06/18 06:50:22;;;;;;;16.90;12.20;;;23.40;99.90;;;;;;4981512;28;92144;-35
2022/06/18 06:52:49;;;;;;;18.37;14.47;;;23.40;99.90;;;;;;4985667;28;94309;-36
2022/06/18 06:58:16;;;;;;;17.65;13.07;;;23.90;99.90;;;;;;4980457;28;95554;-34
2022/06/18 07:00:45;;;;;;;19.73;11.00;;;23.80;99.90;;;;;;4977912;28;93455;-36
2022/06/18 07:03:16;;;;;;;13.63;10.30;;;24.20;99.90;;;;;;4977573;28;94509;-36
2022/06/18 07:05:43;;;;;;;19.50;13.30;;;24.20;99.90;;;;;;4977897;28;94821;-36
2022/06/18 07:08:09;;;;;;;14.37;10.80;;;24.20;99.90;;;;;;4976889;28;96097;-34
2022/06/18 07:10:35;;;;;;;14.27;11.20;;;24.50;99.90;;;;;;4987290;28;93130;-38
2022/06/18 07:13:00;;;;;;;21.02;10.02;;;24.70;99.90;;;;;;4982900;28;91572;-36
2022/06/18 07:15:26;;;;;;;22.75;11.50;;;24.80;99.90;;;;;;4994818;28;95152;-38
2022/06/18 07:17:51;;;;;;;12.50;9.63;;;24.50;99.90;;;;;;4995529;28;94510;-35
2022/06/18 07:20:19;;;;;;;12.45;11.15;;;24.50;99.90;;;;;;4995544;28;94565;-35
2022/06/18 07:22:45;;;;;;;15.60;9.93;;;24.50;99.90;;;;;;4994984;28;93440;-34
2022/06/18 07:25:13;;;;;;;17.48;9.52;;;24.70;99.90;;;;;;4996746;28;94780;-37
2022/06/18 07:27:39;;;;;;;13.57;11.30;;;24.50;99.90;;;;;;4995832;28;94526;-35
2022/06/18 07:30:08;;;;;;;13.00;9.50;;;24.50;99.90;;;;;;4995439;28;94183;-37
2022/06/18 07:32:35;;;;;;;11.55;9.57;;;24.50;99.90;;;;;;4995607;28;94495;-34
2022/06/18 07:35:02;;;;;;;16.25;9.90;;;24.60;99.90;;;;;;4996117;28;94320;-37
2022/06/18 07:37:28;;;;;;;14.70;9.88;;;24.90;99.90;;;;;;4993939;28;94717;-36
2022/06/18 07:39:54;;;;;;;10.75;9.65;;;24.90;99.90;;;;;;4975887;28;92527;-38
2022/06/18 07:42:21;;;;;;;12.18;9.48;;;24.80;99.90;;;;;;4979816;28;92794;-35
2022/06/18 07:44:47;;;;;;;18.43;10.77;;;24.70;99.90;;;;;;4994646;28;95730;-35
2022/06/18 07:47:15;;;;;;;9.93;8.88;;;24.80;99.90;;;;;;4994158;28;96271;-39
2022/06/18 07:49:42;;;;;;;12.02;7.63;;;25.10;99.90;;;;;;4992881;28;92093;-35
2022/06/18 07:52:07;;;;;;;13.40;7.23;;;25.40;99.90;;;;;;4995318;28;92686;-37
2022/06/18 07:54:33;;;;;;;16.35;10.57;;;25.20;99.90;;;;;;4991764;28;95307;-35
2022/06/18 07:56:59;;;;;;;17.58;9.02;;;25.40;99.90;;;;;;4977843;28;94284;-35
2022/06/18 07:59:24;;;;;;;13.35;10.77;;;25.20;99.90;;;;;;4996241;28;93248;-34
2022/06/18 08:01:50;;;;;;;18.38;10.40;;;25.30;99.90;;;;;;4993766;28;94207;-34
2022/06/18 08:04:16;;;;;;;15.88;10.32;;;24.70;99.90;;;;;;4994151;28;94863;-35
2022/06/18 08:06:41;;;;;;;11.05;9.90;;;25.00;99.90;;;;;;4993333;28;93636;-36
2022/06/18 08:09:08;;;;;;;23.48;9.65;;;24.70;99.90;;;;;;4995094;28;94019;-37
2022/06/18 08:11:35;;;;;;;14.35;8.80;;;24.80;99.90;;;;;;4995359;28;93100;-35
2022/06/18 08:14:01;;;;;;;10.25;9.00;;;24.60;99.90;;;;;;4994785;28;95661;-37
2022/06/18 08:16:27;;;;;;;16.63;9.25;;;24.80;99.90;;;;;;4988891;28;94158;-35
2022/06/18 08:18:52;;;;;;;9.43;8.30;;;24.90;99.90;;;;;;4988698;28;92686;-37
2022/06/18 08:21:30;;;;;;;10.63;7.22;;;25.20;99.90;;;;;;4994312;28;93608;-36
2022/06/18 08:24:04;;;;;;;9.52;7.78;;;25.50;99.90;;;;;;4994615;28;94056;-36
2022/06/18 08:26:30;;;;;;;8.38;6.60;;;25.60;99.90;;;;;;4994784;28;94846;-37
2022/06/18 08:28:56;;;;;;;8.35;6.63;;;25.40;99.90;;;;;;4995817;28;94497;-39
2022/06/18 08:31:22;;;;;;;12.73;9.27;;;25.40;99.90;;;;;;4994446;28;94245;-37
2022/06/18 08:33:47;;;;;;;11.75;7.82;;;25.50;99.90;;;;;;4994188;28;95969;-37
2022/06/18 08:36:15;;;;;;;9.45;7.05;;;25.50;99.90;;;;;;4985760;28;94421;-34
2022/06/18 08:38:44;;;;;;;12.38;8.07;;;25.50;99.90;;;;;;4975206;28;93209;-37
2022/06/18 08:41:20;;;;;;;11.73;6.47;;;24.80;99.90;;;;;;4991032;28;92986;-36
2022/06/18 08:44:00;;;;;;;9.73;6.40;;;24.70;99.90;;;;;;4989502;28;94630;-37
2022/06/18 08:46:44;;;;;;;10.95;6.95;;;24.80;99.90;;;;;;4994509;28;95931;-37
2022/06/18 08:49:23;;;;;;;8.50;7.43;;;25.00;99.90;;;;;;4995356;28;93530;-37
2022/06/18 08:52:14;;;;;;;11.70;6.90;;;25.10;99.90;;;;;;4992801;28;93798;-34
2022/06/18 08:54:52;;;;;;;11.05;7.50;;;24.70;99.90;;;;;;4994032;28;94558;-35
2022/06/18 08:57:41;;;;;;;12.20;6.28;;;24.70;99.90;;;;;;4995248;28;94402;-35
2022/06/18 09:00:41;;;;;;;14.38;7.63;;;25.00;99.90;;;;;;4990736;28;95216;-36
2022/06/18 09:03:43;;;;;;;7.75;7.05;;;24.90;99.90;;;;;;4976803;28;95245;-36
2022/06/18 09:06:18;;;;;;;10.85;6.22;;;24.80;99.90;;;;;;4981704;28;94803;-36
2022/06/18 09:08:56;;;;;;;12.52;8.40;;;25.00;99.90;;;;;;5000432;28;93869;-37
2022/06/18 09:11:43;;;;;;;11.68;8.07;;;25.10;99.90;;;;;;5000854;28;93214;-35
2022/06/18 09:14:19;;;;;;;8.45;7.43;;;25.40;99.90;;;;;;4991262;28;93815;-39
2022/06/18 09:17:10;;;;;;;17.55;8.43;;;25.40;99.90;;;;;;5000357;28;95794;-35
2022/06/18 09:19:39;;;;;;;10.10;7.95;;;25.20;99.90;;;;;;4989401;28;94571;-40
2022/06/18 09:22:14;;;;;;;9.55;6.80;;;25.00;99.90;;;;;;5001199;28;94589;-40
2022/06/18 09:24:43;;;;;;;10.52;7.18;;;25.10;99.90;;;;;;5000793;28;93660;-38
2022/06/18 09:27:21;;;;;;;9.50;6.15;;;25.40;99.90;;;;;;5000380;28;95737;-35
2022/06/18 09:30:02;;;;;;;13.95;7.70;;;25.30;99.90;;;;;;5000803;28;95574;-34
2022/06/18 09:32:41;;;;;;;9.05;5.30;;;25.50;99.90;;;;;;4989752;28;93587;-36
2022/06/18 09:35:15;;;;;;;11.70;6.35;;;25.80;99.90;;;;;;5001319;28;93933;-38
2022/06/18 09:37:47;;;;;;;9.77;5.55;;;26.10;99.90;;;;;;5000844;28;95254;-34
2022/06/18 09:40:35;;;;;;;14.77;5.70;;;26.50;99.90;;;;;;5000637;28;94487;-36
2022/06/18 09:43:19;;;;;;;;;;;26.60;99.90;;;;;;5001649;28;93180;-38
2022/06/18 09:45:53;;;;;;;6.72;6.10;;;26.60;99.90;;;;;;4987480;28;92641;-38
2022/06/18 09:48:19;;;;;;;11.48;5.35;;;26.50;99.90;;;;;;4994144;28;94756;-36
2022/06/18 09:51:01;;;;;;;6.70;5.95;;;26.40;99.90;;;;;;4999900;28;94097;-35
2022/06/18 09:53:34;;;;;;;7.20;6.40;;;26.40;99.90;;;;;;5000578;28;94159;-39
2022/06/18 09:56:06;;;;;;;10.63;5.68;;;26.30;99.90;;;;;;5000337;28;92535;-37
2022/06/18 09:58:50;;;;;;;10.70;6.53;;;26.30;99.90;;;;;;4999716;28;94697;-35
2022/06/18 10:01:24;;;;;;;12.27;6.18;;;26.20;99.90;;;;;;5000116;28;94588;-38
2022/06/18 10:06:57;;;;;;;6.28;5.65;;;26.40;99.90;;;;;;4999650;28;93578;-38
2022/06/18 10:09:38;;;;;;;9.60;6.63;;;26.50;99.90;;;;;;5000644;28;95225;-36
2022/06/18 10:12:21;;;;;;;5.95;5.35;;;26.50;99.90;;;;;;5000739;28;95249;-38
2022/06/18 10:14:57;;;;;;;7.85;4.78;;;26.60;99.90;;;;;;4995559;28;93487;-39
2022/06/18 10:17:40;;;;;;;5.47;4.70;;;26.70;99.90;;;;;;4979034;28;93657;-36
2022/06/18 10:20:35;;;;;;;7.63;5.22;;;26.70;99.90;;;;;;4990573;28;95495;-40
2022/06/18 10:23:19;;;;;;;9.52;6.32;;;26.40;99.90;;;;;;4996004;28;94714;-39
2022/06/18 10:25:56;;;;;;;7.38;5.63;;;26.50;99.90;;;;;;4978840;28;94036;-36
2022/06/18 10:28:29;;;;;;;6.32;4.95;;;26.40;99.90;;;;;;4988894;28;92983;-37
2022/06/18 10:31:11;;;;;;;8.73;5.20;;;26.40;99.90;;;;;;4996612;28;95230;-36
2022/06/18 10:33:57;;;;;;;5.15;4.55;;;26.40;99.90;;;;;;4996019;28;95812;-37
2022/06/18 10:36:41;;;;;;;9.13;4.38;;;26.20;99.90;;;;;;4997272;28;93291;-35
2022/06/18 10:39:32;;;;;;;7.80;3.75;;;26.50;99.90;;;;;;4997311;28;93546;-35
2022/06/18 10:42:24;;;;;;;6.78;4.20;;;26.50;99.90;;;;;;4996266;28;94804;-38
2022/06/18 10:45:12;;;;;;;5.53;5.00;;;26.70;99.90;;;;;;4996298;28;94481;-35
2022/06/18 10:47:42;;;;;;;5.93;4.45;;;26.50;99.90;;;;;;4995996;28;94170;-39
2022/06/18 10:50:11;;;;;;;4.72;4.32;;;26.50;99.90;;;;;;4997153;28;94346;-38
2022/06/18 10:52:38;;;;;;;9.50;4.20;;;26.50;99.90;;;;;;4996084;28;94853;-37
2022/06/18 10:55:04;;;;;;;8.20;5.05;;;26.70;99.90;;;;;;4986220;28;95658;-38
2022/06/18 10:57:30;;;;;;;7.83;5.03;;;26.50;99.90;;;;;;4993282;28;93414;-35
2022/06/18 11:00:06;;;;;;;6.43;3.63;;;26.20;99.90;;;;;;4996551;28;93064;-35
2022/06/18 11:02:38;;;;;;;7.07;3.97;;;26.00;99.90;;;;;;4995167;28;95125;-35
2022/06/18 11:05:14;;;;;;;9.13;4.57;;;25.90;99.90;;;;;;4996469;28;94480;-39
2022/06/18 11:07:44;;;;;;;6.30;4.60;;;26.30;99.90;;;;;;4996150;28;93070;-37
2022/06/18 11:10:44;;;;;;;13.70;4.90;;;26.20;99.90;;;;;;4996527;28;94005;-36
2022/06/18 11:13:27;;;;;;;4.20;3.80;;;26.30;99.90;;;;;;4982173;28;96237;-37
2022/06/18 11:16:05;;;;;;;4.32;3.60;;;26.10;99.90;;;;;;4995484;28;97044;-36
2022/06/18 11:18:30;;;;;;;6.38;4.00;;;26.20;99.90;;;;;;4995393;28;93448;-35
2022/06/18 11:21:06;;;;;;;4.05;3.70;;;26.30;99.90;;;;;;4988937;28;94834;-37
2022/06/18 11:23:35;;;;;;;5.22;4.07;;;26.30;99.90;;;;;;4990198;28;95791;-39
2022/06/18 11:26:01;;;;;;;7.80;4.10;;;26.50;99.90;;;;;;4995909;28;94007;-39
2022/06/18 11:28:39;;;;;;;5.78;3.90;;;26.30;99.90;;;;;;4995213;28;93352;-38
2022/06/18 11:31:06;;;;;;;3.90;3.00;;;26.30;99.90;;;;;;4987830;28;92603;-37
2022/06/18 11:33:41;;;;;;;7.67;3.57;;;26.30;99.90;;;;;;4951123;27;95309;-36
2022/06/18 11:36:18;;;;;;;4.15;3.80;;;26.40;99.90;;;;;;4963762;28;94292;-38
2022/06/18 11:38:56;;;;;;;5.75;3.65;;;26.50;99.90;;;;;;4970553;28;94042;-36
2022/06/18 11:41:31;;;;;;;9.02;4.18;;;26.60;99.90;;;;;;4975688;28;92062;-40
2022/06/18 11:44:01;;;;;;;4.57;3.20;;;26.50;99.90;;;;;;4975152;28;94924;-35
2022/06/18 11:46:51;;;;;;;6.53;4.63;;;26.80;99.90;;;;;;4975441;28;95452;-35
2022/06/18 11:49:23;;;;;;;7.55;3.78;;;26.70;99.90;;;;;;4945738;28;92907;-36
2022/06/18 11:52:01;;;;;;;4.65;3.55;;;26.50;99.90;;;;;;4975175;28;93284;-35
2022/06/18 11:54:39;;;;;;;4.28;3.80;;;26.50;99.90;;;;;;4975487;28;94675;-36
2022/06/18 11:57:27;;;;;;;9.60;3.97;;;26.50;99.90;;;;;;4975812;28;94578;-36
2022/06/18 12:00:25;;;;;;;4.10;3.80;;;26.20;99.90;;;;;;4975975;28;93559;-35
2022/06/18 12:02:59;;;;;;;4.63;3.95;;;26.40;99.90;;;;;;4974931;28;94629;-34
2022/06/18 12:05:34;;;;;;;5.80;3.28;;;26.50;99.90;;;;;;4974889;28;96099;-34
2022/06/18 12:08:02;;;;;;;4.75;4.20;;;26.50;99.90;;;;;;4975131;28;96320;-36
2022/06/18 12:10:58;;;;;;;5.75;3.67;;;26.80;99.90;;;;;;4975546;28;93167;-36
2022/06/18 12:13:35;;;;;;;6.15;4.43;;;26.50;99.90;;;;;;4966882;28;94010;-36
2022/06/18 12:16:23;;;;;;;4.53;3.83;;;26.10;99.90;;;;;;4974454;28;94832;-36
2022/06/18 12:19:00;;;;;;;3.53;3.15;;;26.00;99.90;;;;;;4975301;28;94597;-35
2022/06/18 12:21:41;;;;;;;9.05;3.65;;;25.80;99.90;;;;;;4975892;28;93918;-36
2022/06/18 12:24:24;;;;;;;7.07;2.70;;;25.80;99.90;;;;;;4975761;28;93034;-39
2022/06/18 12:26:59;;;;;;;3.88;2.78;;;25.70;99.90;;;;;;4974419;28;94374;-39
2022/06/18 12:29:41;;;;;;;3.50;2.63;;;25.60;99.90;;;;;;4975443;28;94514;-35
2022/06/18 12:32:34;;;;;;;3.95;3.55;;;25.60;99.90;;;;;;4972484;28;94593;-38
2022/06/18 12:35:28;;;;;;;4.35;2.80;;;25.70;99.90;;;;;;4974967;28;93364;-38
2022/06/18 12:38:14;;;;;;;4.93;2.92;;;25.60;99.90;;;;;;4974743;28;94364;-34
2022/06/18 12:40:56;;;;;;;3.17;2.88;;;25.60;99.90;;;;;;4974598;28;94942;-36
2022/06/18 12:43:40;;;;;;;4.13;3.05;;;25.30;99.90;;;;;;4975688;28;93427;-35
2022/06/18 12:46:16;;;;;;;4.82;2.60;;;25.30;99.90;;;;;;4974810;28;93092;-38
2022/06/18 12:49:04;;;;;;;4.15;2.92;;;25.30;99.90;;;;;;4972686;28;94646;-37
2022/06/18 12:51:49;;;;;;;5.63;2.83;;;25.20;99.90;;;;;;4975502;28;94467;-34
2022/06/18 12:54:36;;;;;;;6.35;2.88;;;25.20;99.90;;;;;;4974955;28;94397;-38
2022/06/18 12:57:29;;;;;;;4.25;2.17;;;25.30;99.90;;;;;;4975035;28;92952;-37
2022/06/18 13:00:02;;;;;;;3.40;2.42;;;25.20;99.90;;;;;;4974168;28;94435;-37
2022/06/18 13:03:03;;;;;;;2.67;1.88;;;25.00;99.90;;;;;;5005799;22;95475;-36
2022/06/18 13:05:49;;;;;;;2.58;2.38;;;24.90;99.90;;;;;;4974824;28;94977;-36
2022/06/18 13:08:33;;;;;;;3.08;2.40;;;24.90;99.90;;;;;;4974524;28;92922;-38
2022/06/18 13:11:09;;;;;;;6.18;2.75;;;24.90;99.90;;;;;;4962168;28;96923;-35
2022/06/18 13:13:51;;;;;;;3.90;2.88;;;24.80;99.90;;;;;;4968919;28;94642;-38
2022/06/18 13:16:54;;;;;;;6.57;2.85;;;24.70;99.90;;;;;;4974247;28;93065;-35
2022/06/18 13:19:34;;;;;;;7.93;3.20;;;24.90;99.90;;;;;;4974801;28;92776;-37